sensor_id;sensor_type;location;lat;lon;timestamp;pressure;altitude;pressure_sealevel;temperature;humidity
30875;BME280;17581;43.222;27.924;2023-01-04T00:01:14;101649.91;;;12.29;68.71
30875;BME280;17581;43.222;27.924;2023-01-04T00:03:40;101648.81;;;12.31;68.41
30875;BME280;17581;43.222;27.924;2023-01-04T00:06:07;101650.97;;;12.26;68.80
30875;BME280;17581;43.222;27.924;2023-01-04T00:08:34;101649.56;;;12.21;69.15
30875;BME280;17581;43.222;27.924;2023-01-04T00:11:05;101651.81;;;12.27;69.37
30875;BME280;17581;43.222;27.924;2023-01-04T00:13:31;101650.88;;;12.28;68.70
30875;BME280;17581;43.222;27.924;2023-01-04T00:15:57;101649.78;;;12.30;68.83
30875;BME280;17581;43.222;27.924;2023-01-04T00:18:23;101664.13;;;12.31;68.95
30875;BME280;17581;43.222;27.924;2023-01-04T00:20:48;101666.81;;;12.31;69.04
30875;BME280;17581;43.222;27.924;2023-01-04T00:23:14;101655.53;;;12.26;68.98
30875;BME280;17581;43.222;27.924;2023-01-04T00:25:39;101671.13;;;12.33;68.85
30875;BME280;17581;43.222;27.924;2023-01-04T00:28:05;101669.75;;;12.28;68.97
30875;BME280;17581;43.222;27.924;2023-01-04T00:30:31;101670.94;;;12.24;68.59
30875;BME280;17581;43.222;27.924;2023-01-04T00:32:57;101675.59;;;12.22;68.33
30875;BME280;17581;43.222;27.924;2023-01-04T00:35:23;101672.16;;;12.20;68.71
30875;BME280;17581;43.222;27.924;2023-01-04T00:37:48;101677.31;;;12.23;68.52
30875;BME280;17581;43.222;27.924;2023-01-04T00:40:14;101677.53;;;12.20;68.86
30875;BME280;17581;43.222;27.924;2023-01-04T00:42:39;101668.88;;;12.15;68.26
30875;BME280;17581;43.222;27.924;2023-01-04T00:45:05;101670.75;;;12.02;68.48
30875;BME280;17581;43.222;27.924;2023-01-04T00:47:31;101680.66;;;12.14;68.75
30875;BME280;17581;43.222;27.924;2023-01-04T00:49:56;101669.03;;;12.00;68.67
30875;BME280;17581;43.222;27.924;2023-01-04T00:52:21;101685.50;;;12.09;69.18
30875;BME280;17581;43.222;27.924;2023-01-04T00:54:47;101676.91;;;12.04;68.77
30875;BME280;17581;43.222;27.924;2023-01-04T00:57:12;101685.41;;;11.97;68.67
30875;BME280;17581;43.222;27.924;2023-01-04T00:59:38;101699.75;;;11.98;69.51
30875;BME280;17581;43.222;27.924;2023-01-04T01:02:03;101693.94;;;12.04;68.96
30875;BME280;17581;43.222;27.924;2023-01-04T01:04:28;101680.34;;;11.93;69.04
30875;BME280;17581;43.222;27.924;2023-01-04T01:06:54;101684.47;;;11.98;69.38
30875;BME280;17581;43.222;27.924;2023-01-04T01:09:22;101693.28;;;12.00;69.31
30875;BME280;17581;43.222;27.924;2023-01-04T01:11:48;101689.41;;;12.05;68.74
30875;BME280;17581;43.222;27.924;2023-01-04T01:14:19;101680.97;;;12.09;68.91
30875;BME280;17581;43.222;27.924;2023-01-04T01:16:45;101692.84;;;12.07;69.04
30875;BME280;17581;43.222;27.924;2023-01-04T01:19:11;101675.38;;;11.99;68.98
30875;BME280;17581;43.222;27.924;2023-01-04T01:21:37;101689.63;;;12.02;68.57
30875;BME280;17581;43.222;27.924;2023-01-04T01:24:03;101689.84;;;11.98;68.87
30875;BME280;17581;43.222;27.924;2023-01-04T01:26:29;101694.59;;;11.95;68.64
30875;BME280;17581;43.222;27.924;2023-01-04T01:28:54;101697.06;;;11.98;68.80
30875;BME280;17581;43.222;27.924;2023-01-04T01:31:25;101702.78;;;11.93;68.69
30875;BME280;17581;43.222;27.924;2023-01-04T01:33:52;101688.53;;;11.91;68.74
30875;BME280;17581;43.222;27.924;2023-01-04T01:36:20;101699.63;;;11.87;68.88
30875;BME280;17581;43.222;27.924;2023-01-04T01:38:46;101682.19;;;11.80;68.57
30875;BME280;17581;43.222;27.924;2023-01-04T01:41:24;101693.81;;;11.80;69.03
30875;BME280;17581;43.222;27.924;2023-01-04T01:44:46;101695.75;;;11.78;68.91
30875;BME280;17581;43.222;27.924;2023-01-04T01:46:52;101685.41;;;11.72;68.86
30875;BME280;17581;43.222;27.924;2023-01-04T01:49:23;101683.84;;;11.68;69.54
30875;BME280;17581;43.222;27.924;2023-01-04T01:51:50;101687.63;;;11.66;69.02
30875;BME280;17581;43.222;27.924;2023-01-04T01:54:24;101688.91;;;11.60;69.25
30875;BME280;17581;43.222;27.924;2023-01-04T01:56:55;101686.34;;;11.59;69.73
30875;BME280;17581;43.222;27.924;2023-01-04T01:59:22;101677.81;;;11.52;69.38
30875;BME280;17581;43.222;27.924;2023-01-04T02:01:49;101684.69;;;11.56;70.13
30875;BME280;17581;43.222;27.924;2023-01-04T02:04:15;101682.63;;;11.47;69.58
30875;BME280;17581;43.222;27.924;2023-01-04T02:06:46;101702.91;;;11.53;69.52
30875;BME280;17581;43.222;27.924;2023-01-04T02:09:12;101699.69;;;11.60;70.11
30875;BME280;17581;43.222;27.924;2023-01-04T02:11:38;101697.94;;;11.46;69.98
30875;BME280;17581;43.222;27.924;2023-01-04T02:14:04;101689.22;;;11.43;70.24
30875;BME280;17581;43.222;27.924;2023-01-04T02:22:18;101704.09;;;11.48;70.43
30875;BME280;17581;43.222;27.924;2023-01-04T02:41:06;101695.06;;;11.23;70.43
30875;BME280;17581;43.222;27.924;2023-01-04T02:43:57;101703.91;;;11.25;70.12
30875;BME280;17581;43.222;27.924;2023-01-04T02:46:53;101703.91;;;11.25;70.70
30875;BME280;17581;43.222;27.924;2023-01-04T02:49:21;101711.22;;;11.23;70.91
30875;BME280;17581;43.222;27.924;2023-01-04T02:52:07;101699.78;;;11.19;70.64
30875;BME280;17581;43.222;27.924;2023-01-04T02:54:32;101699.50;;;11.24;70.10
30875;BME280;17581;43.222;27.924;2023-01-04T02:56:59;101711.00;;;11.26;70.71
30875;BME280;17581;43.222;27.924;2023-01-04T03:05:34;101704.34;;;11.19;70.56
30875;BME280;17581;43.222;27.924;2023-01-04T03:11:00;101694.38;;;11.07;70.52
30875;BME280;17581;43.222;27.924;2023-01-04T03:13:38;101695.53;;;11.03;71.08
30875;BME280;17581;43.222;27.924;2023-01-04T03:16:14;101705.34;;;11.04;70.61
30875;BME280;17581;43.222;27.924;2023-01-04T03:18:43;101705.34;;;11.04;71.02
30875;BME280;17581;43.222;27.924;2023-01-04T03:21:13;101699.19;;;11.02;71.26
30875;BME280;17581;43.222;27.924;2023-01-04T03:23:41;101706.59;;;10.98;70.67
30875;BME280;17581;43.222;27.924;2023-01-04T03:26:29;101698.22;;;11.03;71.05
30875;BME280;17581;43.222;27.924;2023-01-04T03:29:43;101707.47;;;10.99;70.82
30875;BME280;17581;43.222;27.924;2023-01-04T03:32:36;101707.88;;;10.92;71.15
30875;BME280;17581;43.222;27.924;2023-01-04T03:35:28;101702.47;;;10.92;70.85
30875;BME280;17581;43.222;27.924;2023-01-04T03:38:26;101707.88;;;10.92;71.14
30875;BME280;17581;43.222;27.924;2023-01-04T03:41:41;101715.66;;;10.97;71.75
30875;BME280;17581;43.222;27.924;2023-01-04T03:47:39;101723.22;;;11.05;71.21
30875;BME280;17581;43.222;27.924;2023-01-04T03:50:35;101715.25;;;11.03;71.20
30875;BME280;17581;43.222;27.924;2023-01-04T03:53:05;101713.84;;;10.98;71.22
30875;BME280;17581;43.222;27.924;2023-01-04T03:55:33;101716.06;;;10.91;71.07
30875;BME280;17581;43.222;27.924;2023-01-04T03:58:00;101724.22;;;10.89;71.72
30875;BME280;17581;43.222;27.924;2023-01-04T04:00:26;101729.59;;;10.89;72.07
30875;BME280;17581;43.222;27.924;2023-01-04T04:02:52;101725.19;;;10.88;72.04
30875;BME280;17581;43.222;27.924;2023-01-04T04:05:22;101731.53;;;10.87;72.26
30875;BME280;17581;43.222;27.924;2023-01-04T04:08:07;101732.09;;;10.92;72.27
30875;BME280;17581;43.222;27.924;2023-01-04T04:10:51;101739.97;;;10.96;72.50
30875;BME280;17581;43.222;27.924;2023-01-04T04:13:16;101737.94;;;10.99;72.19
30875;BME280;17581;43.222;27.924;2023-01-04T04:15:41;101741.78;;;11.09;71.68
30875;BME280;17581;43.222;27.924;2023-01-04T04:18:07;101747.50;;;11.17;71.94
30875;BME280;17581;43.222;27.924;2023-01-04T04:20:33;101745.16;;;10.99;71.37
30875;BME280;17581;43.222;27.924;2023-01-04T04:22:58;101752.75;;;11.06;71.42
30875;BME280;17581;43.222;27.924;2023-01-04T04:25:24;101753.13;;;11.00;72.32
30875;BME280;17581;43.222;27.924;2023-01-04T04:27:49;101753.22;;;11.13;71.53
30875;BME280;17581;43.222;27.924;2023-01-04T04:30:15;101760.97;;;11.17;71.34
30875;BME280;17581;43.222;27.924;2023-01-04T04:32:40;101766.47;;;11.16;71.50
30875;BME280;17581;43.222;27.924;2023-01-04T04:35:06;101768.09;;;11.18;71.38
30875;BME280;17581;43.222;27.924;2023-01-04T04:37:32;101778.47;;;11.24;71.19
30875;BME280;17581;43.222;27.924;2023-01-04T04:39:59;101757.97;;;11.22;71.27
30875;BME280;17581;43.222;27.924;2023-01-04T04:42:25;101776.31;;;11.29;70.47
30875;BME280;17581;43.222;27.924;2023-01-04T04:44:50;101769.50;;;11.24;70.65
30875;BME280;17581;43.222;27.924;2023-01-04T04:47:16;101771.78;;;11.30;70.55
30875;BME280;17581;43.222;27.924;2023-01-04T04:49:41;101778.41;;;11.38;70.86
30875;BME280;17581;43.222;27.924;2023-01-04T04:52:06;101781.41;;;11.34;70.63
30875;BME280;17581;43.222;27.924;2023-01-04T04:54:32;101784.66;;;11.39;70.08
30875;BME280;17581;43.222;27.924;2023-01-04T04:56:58;101773.75;;;11.28;70.74
30875;BME280;17581;43.222;27.924;2023-01-04T04:59:23;101787.34;;;11.39;70.21
30875;BME280;17581;43.222;27.924;2023-01-04T05:01:48;101778.91;;;11.31;69.71
30875;BME280;17581;43.222;27.924;2023-01-04T05:04:14;101777.19;;;11.30;69.71
30875;BME280;17581;43.222;27.924;2023-01-04T05:06:48;101782.31;;;11.20;70.52
30875;BME280;17581;43.222;27.924;2023-01-04T05:09:14;101770.47;;;11.23;70.75
30875;BME280;17581;43.222;27.924;2023-01-04T05:11:40;101764.19;;;11.10;71.05
30875;BME280;17581;43.222;27.924;2023-01-04T05:14:25;101775.59;;;11.13;70.82
30875;BME280;17581;43.222;27.924;2023-01-04T05:16:51;101773.22;;;11.09;71.05
30875;BME280;17581;43.222;27.924;2023-01-04T05:19:16;101787.63;;;11.08;71.37
30875;BME280;17581;43.222;27.924;2023-01-04T05:21:42;101784.19;;;11.06;71.36
30875;BME280;17581;43.222;27.924;2023-01-04T05:24:10;101764.78;;;11.01;71.81
30875;BME280;17581;43.222;27.924;2023-01-04T05:26:36;101782.91;;;11.11;71.82
30875;BME280;17581;43.222;27.924;2023-01-04T05:29:01;101774.53;;;11.16;71.97
30875;BME280;17581;43.222;27.924;2023-01-04T05:31:26;101790.38;;;11.20;71.36
30875;BME280;17581;43.222;27.924;2023-01-04T05:33:52;101776.84;;;11.22;71.49
30875;BME280;17581;43.222;27.924;2023-01-04T05:36:17;101777.47;;;11.25;70.48
30875;BME280;17581;43.222;27.924;2023-01-04T05:38:43;101772.41;;;11.21;70.36
30875;BME280;17581;43.222;27.924;2023-01-04T05:41:08;101774.13;;;11.22;70.66
30875;BME280;17581;43.222;27.924;2023-01-04T05:43:54;101778.88;;;11.18;70.68
30875;BME280;17581;43.222;27.924;2023-01-04T05:46:20;101782.03;;;11.11;71.30
30875;BME280;17581;43.222;27.924;2023-01-04T05:48:45;101783.78;;;11.12;70.55
30875;BME280;17581;43.222;27.924;2023-01-04T05:51:11;101787.63;;;11.08;70.93
30875;BME280;17581;43.222;27.924;2023-01-04T05:53:36;101796.69;;;11.07;71.46
30875;BME280;17581;43.222;27.924;2023-01-04T05:56:02;101793.00;;;11.08;71.06
30875;BME280;17581;43.222;27.924;2023-01-04T05:58:27;101791.09;;;11.10;71.45
30875;BME280;17581;43.222;27.924;2023-01-04T06:00:54;101790.50;;;11.05;71.29
30875;BME280;17581;43.222;27.924;2023-01-04T06:03:19;101808.97;;;11.11;71.59
30875;BME280;17581;43.222;27.924;2023-01-04T06:05:51;101802.50;;;11.13;71.26
30875;BME280;17581;43.222;27.924;2023-01-04T06:08:18;101787.22;;;11.14;71.36
30875;BME280;17581;43.222;27.924;2023-01-04T06:10:43;101790.59;;;11.17;71.63
30875;BME280;17581;43.222;27.924;2023-01-04T06:13:09;101800.88;;;11.25;71.72
30875;BME280;17581;43.222;27.924;2023-01-04T06:15:34;101809.50;;;11.30;71.13
30875;BME280;17581;43.222;27.924;2023-01-04T06:18:00;101801.09;;;11.34;71.08
30875;BME280;17581;43.222;27.924;2023-01-04T06:20:25;101814.06;;;11.42;71.07
30875;BME280;17581;43.222;27.924;2023-01-04T06:22:50;101817.53;;;11.44;70.91
30875;BME280;17581;43.222;27.924;2023-01-04T06:25:16;101826.19;;;11.49;70.84
30875;BME280;17581;43.222;27.924;2023-01-04T06:27:42;101819.66;;;11.39;70.61
30875;BME280;17581;43.222;27.924;2023-01-04T06:30:08;101836.97;;;11.49;70.74
30875;BME280;17581;43.222;27.924;2023-01-04T06:32:33;101833.69;;;11.44;70.55
30875;BME280;17581;43.222;27.924;2023-01-04T06:34:59;101829.97;;;11.32;70.23
30875;BME280;17581;43.222;27.924;2023-01-04T06:37:24;101831.72;;;11.33;69.81
30875;BME280;17581;43.222;27.924;2023-01-04T06:39:50;101851.44;;;11.34;69.89
30875;BME280;17581;43.222;27.924;2023-01-04T06:42:15;101848.75;;;11.20;69.92
30875;BME280;17581;43.222;27.924;2023-01-04T06:45:01;101857.50;;;11.23;70.00
30875;BME280;17581;43.222;27.924;2023-01-04T06:47:27;101861.47;;;11.18;70.14
30875;BME280;17581;43.222;27.924;2023-01-04T06:49:52;101851.84;;;11.14;70.42
30875;BME280;17581;43.222;27.924;2023-01-04T06:52:18;101859.06;;;11.13;70.32
30875;BME280;17581;43.222;27.924;2023-01-04T06:54:43;101848.78;;;11.06;70.65
30875;BME280;17581;43.222;27.924;2023-01-04T06:57:08;101868.59;;;11.19;70.47
30875;BME280;17581;43.222;27.924;2023-01-04T06:59:34;101871.28;;;11.19;69.92
30875;BME280;17581;43.222;27.924;2023-01-04T07:01:59;101885.00;;;11.28;69.78
30875;BME280;17581;43.222;27.924;2023-01-04T07:04:25;101882.22;;;11.30;70.15
30875;BME280;17581;43.222;27.924;2023-01-04T07:06:50;101870.28;;;11.34;69.86
30875;BME280;17581;43.222;27.924;2023-01-04T07:09:16;101881.63;;;11.39;69.79
30875;BME280;17581;43.222;27.924;2023-01-04T07:11:41;101870.25;;;11.48;69.54
30875;BME280;17581;43.222;27.924;2023-01-04T07:14:07;101879.47;;;11.58;68.70
30875;BME280;17581;43.222;27.924;2023-01-04T07:16:32;101868.47;;;11.75;68.49
30875;BME280;17581;43.222;27.924;2023-01-04T07:18:57;101884.78;;;11.86;68.54
30875;BME280;17581;43.222;27.924;2023-01-04T07:21:23;101876.41;;;11.91;68.30
30875;BME280;17581;43.222;27.924;2023-01-04T07:23:51;101890.81;;;11.90;67.61
30875;BME280;17581;43.222;27.924;2023-01-04T07:26:16;101886.09;;;11.93;67.50
30875;BME280;17581;43.222;27.924;2023-01-04T07:28:41;101875.06;;;11.84;67.02
30875;BME280;17581;43.222;27.924;2023-01-04T07:31:25;101891.25;;;12.11;67.70
30875;BME280;17581;43.222;27.924;2023-01-04T07:33:51;101888.00;;;12.18;67.39
30875;BME280;17581;43.222;27.924;2023-01-04T07:36:16;101882.94;;;12.26;67.08
30875;BME280;17581;43.222;27.924;2023-01-04T07:38:42;101877.78;;;12.36;67.31
30875;BME280;17581;43.222;27.924;2023-01-04T07:41:08;101878.34;;;12.66;66.48
30875;BME280;17581;43.222;27.924;2023-01-04T07:43:33;101879.97;;;12.81;66.35
30875;BME280;17581;43.222;27.924;2023-01-04T07:45:58;101883.00;;;12.89;65.97
30875;BME280;17581;43.222;27.924;2023-01-04T07:48:24;101898.56;;;12.98;65.37
30875;BME280;17581;43.222;27.924;2023-01-04T07:50:49;101893.47;;;13.06;65.20
30875;BME280;17581;43.222;27.924;2023-01-04T07:53:15;101898.00;;;13.19;65.15
30875;BME280;17581;43.222;27.924;2023-01-04T07:55:40;101896.81;;;13.35;64.39
30875;BME280;17581;43.222;27.924;2023-01-04T07:58:06;101896.44;;;13.40;64.09
30875;BME280;17581;43.222;27.924;2023-01-04T08:00:31;101898.63;;;13.35;64.17
30875;BME280;17581;43.222;27.924;2023-01-04T08:02:57;101905.00;;;13.34;63.68
30875;BME280;17581;43.222;27.924;2023-01-04T08:05:22;101904.94;;;13.23;64.22
30875;BME280;17581;43.222;27.924;2023-01-04T08:07:50;101913.66;;;13.39;63.89
30875;BME280;17581;43.222;27.924;2023-01-04T08:10:16;101921.13;;;13.23;63.62
30875;BME280;17581;43.222;27.924;2023-01-04T08:12:41;101916.06;;;13.18;64.30
30875;BME280;17581;43.222;27.924;2023-01-04T08:15:07;101906.97;;;13.06;63.98
30875;BME280;17581;43.222;27.924;2023-01-04T08:17:32;101915.66;;;13.12;64.72
30875;BME280;17581;43.222;27.924;2023-01-04T08:19:58;101916.06;;;13.18;64.62
30875;BME280;17581;43.222;27.924;2023-01-04T08:22:25;101913.34;;;13.31;64.35
30875;BME280;17581;43.222;27.924;2023-01-04T08:24:51;101914.91;;;13.46;64.16
30875;BME280;17581;43.222;27.924;2023-01-04T08:27:16;101904.06;;;13.58;64.04
30875;BME280;17581;43.222;27.924;2023-01-04T08:29:42;101901.47;;;13.70;63.21
30875;BME280;17581;43.222;27.924;2023-01-04T08:32:07;101903.59;;;13.77;63.06
30875;BME280;17581;43.222;27.924;2023-01-04T08:34:32;101900.00;;;13.77;62.75
30875;BME280;17581;43.222;27.924;2023-01-04T08:36:58;101901.09;;;13.74;63.18
30875;BME280;17581;43.222;27.924;2023-01-04T08:39:23;101907.44;;;13.86;62.97
30875;BME280;17581;43.222;27.924;2023-01-04T08:41:49;101916.94;;;13.91;62.91
30875;BME280;17581;43.222;27.924;2023-01-04T08:44:21;101924.41;;;14.11;62.56
30875;BME280;17581;43.222;27.924;2023-01-04T08:46:48;101917.75;;;14.04;62.16
30875;BME280;17581;43.222;27.924;2023-01-04T08:49:14;101922.91;;;14.07;62.21
30875;BME280;17581;43.222;27.924;2023-01-04T08:51:40;101931.00;;;13.96;61.31
30875;BME280;17581;43.222;27.924;2023-01-04T08:54:06;101904.28;;;13.92;60.41
30875;BME280;17581;43.222;27.924;2023-01-04T08:56:32;101918.75;;;14.03;60.75
30875;BME280;17581;43.222;27.924;2023-01-04T08:58:57;101918.59;;;14.05;59.85
30875;BME280;17581;43.222;27.924;2023-01-04T09:01:22;101926.28;;;13.87;60.14
30875;BME280;17581;43.222;27.924;2023-01-04T09:03:48;101925.00;;;13.80;60.12
30875;BME280;17581;43.222;27.924;2023-01-04T09:06:14;101930.06;;;13.85;60.44
30875;BME280;17581;43.222;27.924;2023-01-04T09:08:41;101911.00;;;13.86;59.98
30875;BME280;17581;43.222;27.924;2023-01-04T09:11:12;101915.84;;;13.94;59.65
30875;BME280;17581;43.222;27.924;2023-01-04T09:13:38;101913.44;;;14.02;59.95
30875;BME280;17581;43.222;27.924;2023-01-04T09:16:06;101881.75;;;13.68;60.22
30875;BME280;17581;43.222;27.924;2023-01-04T09:18:33;101910.03;;;13.87;60.42
30875;BME280;17581;43.222;27.924;2023-01-04T09:20:58;101918.88;;;13.89;60.27
30875;BME280;17581;43.222;27.924;2023-01-04T09:23:27;101896.84;;;13.83;60.08
30875;BME280;17581;43.222;27.924;2023-01-04T09:25:55;101911.81;;;13.99;59.97
30875;BME280;17581;43.222;27.924;2023-01-04T09:28:21;101908.56;;;13.94;59.37
30875;BME280;17581;43.222;27.924;2023-01-04T09:30:46;101914.53;;;13.99;59.32
30875;BME280;17581;43.222;27.924;2023-01-04T09:33:11;101907.63;;;13.95;58.92
30875;BME280;17581;43.222;27.924;2023-01-04T09:35:37;101895.47;;;13.77;59.39
30875;BME280;17581;43.222;27.924;2023-01-04T09:38:02;101907.44;;;13.86;59.43
30875;BME280;17581;43.222;27.924;2023-01-04T09:40:39;101908.25;;;13.75;59.45
30875;BME280;17581;43.222;27.924;2023-01-04T09:43:17;101902.66;;;13.66;59.50
30875;BME280;17581;43.222;27.924;2023-01-04T09:45:44;101891.38;;;13.48;60.17
30875;BME280;17581;43.222;27.924;2023-01-04T09:48:18;101887.66;;;13.49;60.22
30875;BME280;17581;43.222;27.924;2023-01-04T09:50:50;101905.41;;;13.53;60.14
30875;BME280;17581;43.222;27.924;2023-01-04T09:53:23;101908.63;;;13.58;60.16
30875;BME280;17581;43.222;27.924;2023-01-04T09:55:55;101901.50;;;13.57;59.88
30875;BME280;17581;43.222;27.924;2023-01-04T09:58:26;101913.78;;;13.61;59.82
30875;BME280;17581;43.222;27.924;2023-01-04T10:03:38;101924.94;;;13.69;59.75
30875;BME280;17581;43.222;27.924;2023-01-04T10:06:06;101911.44;;;13.56;59.60
30875;BME280;17581;43.222;27.924;2023-01-04T10:08:33;101915.97;;;13.56;59.40
30875;BME280;17581;43.222;27.924;2023-01-04T10:19:26;101905.84;;;13.47;58.41
30875;BME280;17581;43.222;27.924;2023-01-04T10:22:02;101888.34;;;13.40;58.19
30875;BME280;17581;43.222;27.924;2023-01-04T10:24:45;101892.59;;;13.31;58.10
30875;BME280;17581;43.222;27.924;2023-01-04T10:30:21;101909.28;;;13.49;57.83
30875;BME280;17581;43.222;27.924;2023-01-04T10:33:08;101904.34;;;13.43;57.49
30875;BME280;17581;43.222;27.924;2023-01-04T10:35:35;101894.41;;;13.31;57.12
30875;BME280;17581;43.222;27.924;2023-01-04T10:38:03;101904.78;;;13.37;57.16
30875;BME280;17581;43.222;27.924;2023-01-04T10:40:37;101889.56;;;13.36;57.17
30875;BME280;17581;43.222;27.924;2023-01-04T10:43:15;101896.78;;;13.48;56.99
30875;BME280;17581;43.222;27.924;2023-01-04T10:56:28;101900.03;;;13.40;56.83
30875;BME280;17581;43.222;27.924;2023-01-04T11:06:31;101888.56;;;13.37;56.26
30875;BME280;17581;43.222;27.924;2023-01-04T11:09:10;101909.59;;;13.21;56.59
30875;BME280;17581;43.222;27.924;2023-01-04T11:11:43;101910.63;;;13.31;57.13
30875;BME280;17581;43.222;27.924;2023-01-04T11:14:10;101903.38;;;13.44;56.81
30875;BME280;17581;43.222;27.924;2023-01-04T11:16:39;101895.19;;;13.33;56.88
30875;BME280;17581;43.222;27.924;2023-01-04T11:19:08;101891.94;;;13.28;56.95
30875;BME280;17581;43.222;27.924;2023-01-04T11:21:48;101906.28;;;13.41;57.03
30875;BME280;17581;43.222;27.924;2023-01-04T11:24:16;101896.78;;;13.48;56.94
30875;BME280;17581;43.222;27.924;2023-01-04T11:26:43;101907.88;;;13.56;56.96
30875;BME280;17581;43.222;27.924;2023-01-04T11:29:37;101908.00;;;13.54;57.03
30875;BME280;17581;43.222;27.924;2023-01-04T11:32:14;101896.22;;;13.43;57.11
30875;BME280;17581;43.222;27.924;2023-01-04T11:34:51;101897.53;;;13.37;57.37
30875;BME280;17581;43.222;27.924;2023-01-04T11:42:44;101903.06;;;13.36;57.89
30875;BME280;17581;43.222;27.924;2023-01-04T11:45:25;101895.84;;;13.24;57.81
30875;BME280;17581;43.222;27.924;2023-01-04T11:47:59;101893.56;;;13.30;57.70
30875;BME280;17581;43.222;27.924;2023-01-04T11:53:25;101894.41;;;13.31;57.56
30875;BME280;17581;43.222;27.924;2023-01-04T11:58:31;101891.91;;;13.40;57.78
30875;BME280;17581;43.222;27.924;2023-01-04T12:00:57;101879.53;;;13.25;57.47
30875;BME280;17581;43.222;27.924;2023-01-04T12:03:31;101890.13;;;13.16;57.86
30875;BME280;17581;43.222;27.924;2023-01-04T12:05:59;101902.88;;;13.14;57.85
30875;BME280;17581;43.222;27.924;2023-01-04T12:08:31;101897.78;;;13.22;57.86
30875;BME280;17581;43.222;27.924;2023-01-04T12:10:59;101897.03;;;13.20;57.62
30875;BME280;17581;43.222;27.924;2023-01-04T12:13:25;101886.66;;;13.01;57.82
30875;BME280;17581;43.222;27.924;2023-01-04T12:18:25;101884.06;;;13.12;57.92
30875;BME280;17581;43.222;27.924;2023-01-04T12:20:53;101875.88;;;13.14;57.80
30875;BME280;17581;43.222;27.924;2023-01-04T12:23:18;101884.84;;;13.27;57.78
30875;BME280;17581;43.222;27.924;2023-01-04T12:25:47;101887.19;;;13.19;57.70
30875;BME280;17581;43.222;27.924;2023-01-04T12:33:45;101899.63;;;12.83;59.25
30875;BME280;17581;43.222;27.924;2023-01-04T12:36:19;101889.50;;;12.99;58.91
30875;BME280;17581;43.222;27.924;2023-01-04T12:43:49;101907.94;;;13.31;58.01
30875;BME280;17581;43.222;27.924;2023-01-04T12:54:56;101896.16;;;13.68;56.59
30875;BME280;17581;43.222;27.924;2023-01-04T13:02:32;101894.13;;;13.59;57.12
30875;BME280;17581;43.222;27.924;2023-01-04T13:07:55;101900.81;;;13.66;57.03
30875;BME280;17581;43.222;27.924;2023-01-04T13:10:37;101907.72;;;13.70;56.83
30875;BME280;17581;43.222;27.924;2023-01-04T13:18:40;101884.00;;;13.50;56.81
30875;BME280;17581;43.222;27.924;2023-01-04T13:21:15;101902.75;;;13.64;56.37
30875;BME280;17581;43.222;27.924;2023-01-04T13:23:51;101900.38;;;13.72;55.83
30875;BME280;17581;43.222;27.924;2023-01-04T13:26:42;101891.03;;;13.76;55.51
30875;BME280;17581;43.222;27.924;2023-01-04T13:31:59;101901.78;;;13.65;54.63
30875;BME280;17581;43.222;27.924;2023-01-04T13:34:52;101896.31;;;13.54;54.50
30875;BME280;17581;43.222;27.924;2023-01-04T13:40:01;101902.22;;;13.23;55.55
30875;BME280;17581;43.222;27.924;2023-01-04T13:42:31;101896.59;;;13.26;55.23
30875;BME280;17581;43.222;27.924;2023-01-04T13:47:42;101903.97;;;13.24;55.19
30875;BME280;17581;43.222;27.924;2023-01-04T13:53:02;101893.16;;;13.24;55.10
30875;BME280;17581;43.222;27.924;2023-01-04T13:55:30;101893.16;;;13.24;55.17
30875;BME280;17581;43.222;27.924;2023-01-04T13:58:00;101912.94;;;13.12;55.33
30875;BME280;17581;43.222;27.924;2023-01-04T14:00:33;101898.56;;;13.11;55.29
30875;BME280;17581;43.222;27.924;2023-01-04T14:05:45;101913.25;;;13.20;55.41
30875;BME280;17581;43.222;27.924;2023-01-04T14:08:38;101917.56;;;13.22;55.67
30875;BME280;17581;43.222;27.924;2023-01-04T14:11:13;101910.88;;;13.02;56.05
30875;BME280;17581;43.222;27.924;2023-01-04T14:13:45;101905.13;;;13.07;56.48
30875;BME280;17581;43.222;27.924;2023-01-04T14:16:13;101908.06;;;13.17;56.55
30875;BME280;17581;43.222;27.924;2023-01-04T14:18:39;101904.81;;;13.24;56.47
30875;BME280;17581;43.222;27.924;2023-01-04T14:21:14;101901.34;;;12.97;56.28
30875;BME280;17581;43.222;27.924;2023-01-04T14:23:40;101903.53;;;12.79;56.68
30875;BME280;17581;43.222;27.924;2023-01-04T14:26:06;101896.81;;;12.72;56.69
30875;BME280;17581;43.222;27.924;2023-01-04T14:28:34;101904.16;;;12.70;56.55
30875;BME280;17581;43.222;27.924;2023-01-04T14:41:52;101922.72;;;12.49;58.62
30875;BME280;17581;43.222;27.924;2023-01-04T14:44:25;101902.22;;;12.47;58.12
30875;BME280;17581;43.222;27.924;2023-01-04T14:46:54;101927.81;;;12.67;58.21
30875;BME280;17581;43.222;27.924;2023-01-04T14:49:20;101920.38;;;12.70;58.21
30875;BME280;17581;43.222;27.924;2023-01-04T14:52:07;101910.22;;;12.61;58.69
30875;BME280;17581;43.222;27.924;2023-01-04T14:54:33;101917.78;;;12.69;58.60
30875;BME280;17581;43.222;27.924;2023-01-04T14:56:59;101913.44;;;12.66;58.60
30875;BME280;17581;43.222;27.924;2023-01-04T14:59:25;101910.41;;;12.58;58.74
30875;BME280;17581;43.222;27.924;2023-01-04T15:01:51;101916.34;;;12.63;58.59
30875;BME280;17581;43.222;27.924;2023-01-04T15:04:17;101917.13;;;12.52;58.79
30875;BME280;17581;43.222;27.924;2023-01-04T15:06:52;101926.59;;;12.45;59.37
30875;BME280;17581;43.222;27.924;2023-01-04T15:09:17;101928.56;;;12.56;59.41